Latest Coastal Weather Observations for Parndana

IDS60701

Issued at 11:41 am CST Wednesday 26 April 2017 (issued every 10 minutes, with the page automatically refreshed every 10 minutes)

About coastal observations | Map of coastal stations | Coastal observations for SA | Marine services | Other Formats
Station Details ID: 022843 Name: PARNDANA CFS AWS Lat: -35.79 Lon: 137.25 Height: 165.0 m
Data from the previous 72 hours. | See also: Recent months at Parndana
Date/Time
CST
Temp
°C
Wind Pressure Rain since
9am
mm
Weather Cloud Vis
km
Sea
Height
m
Swell
Dir  Spd
kts
Gust
kts
hPa Trend Height
m
Period
s
Dir
26/11:30am 13.0 S 15 21 - - 0.0 - - - - - - -
26/11:00am 12.7 SSW 12 15 - - 0.0 - - - - - - -
26/10:30am 12.4 S 17 25 - - 0.0 - - - - - - -
26/10:00am 12.6 SSW 16 24 - - 0.0 - - - - - - -
26/09:30am 12.6 SSW 13 18 - - 0.0 - - - - - - -
26/09:00am 11.8 S 15 21 - - 6.0 - - - - - - -
26/08:30am 11.2 S 15 21 - - 6.0 - - - - - - -
26/08:00am 10.4 S 15 22 - - 6.0 - - - - - - -
26/07:30am 9.8 S 13 19 - - 6.0 - - - - - - -
26/07:00am 9.2 S 11 15 - - 6.0 - - - - - - -
26/06:30am 9.1 SSW 15 22 - - 6.0 - - - - - - -
26/06:00am 9.4 SSW 16 24 - - 6.0 - - - - - - -
26/05:30am 9.2 SSW 15 23 - - 6.0 - - - - - - -
26/05:00am 9.2 SSW 18 24 - - 6.0 - - - - - - -
26/04:49am 9.3 SSW 16 26 - - 6.0 - - - - - - -
26/04:30am 9.1 SSW 17 24 - - 6.0 - - - - - - -
26/04:00am 8.9 SW 17 23 - - 6.0 - - - - - - -
26/03:38am 9.4 SSW 18 29 - - 6.0 - - - - - - -
26/03:30am 9.3 SSW 14 20 - - 6.0 - - - - - - -
26/03:00am 8.9 SSW 17 26 - - 6.0 - - - - - - -
26/02:43am 9.4 SSW 18 33 - - 6.0 - - - - - - -
26/02:30am 9.5 SSW 17 22 - - 6.0 - - - - - - -
26/02:00am 9.3 SSW 21 33 - - 6.0 - - - - - - -
26/01:48am 10.1 SSW 18 31 - - 6.0 - - - - - - -
26/01:30am 10.0 SW 18 26 - - 6.0 - - - - - - -
26/01:00am 9.0 SW 23 36 - - 6.0 - - - - - - -
26/12:30am 10.0 SW 20 31 - - 5.4 - - - - - - -
26/12:21am 10.4 SW 16 27 - - 5.4 - - - - - - -
26/12:00am 10.3 SW 17 27 - - 5.4 - - - - - - -
 
Date/Time
CST
Temp
°C
Wind Pressure Rain since
9am
mm
Weather Cloud Vis
km
Sea
Height
m
Swell
Dir  Spd
kts
Gust
kts
hPa Trend Height
m
Period
s
Dir
25/11:53pm 11.0 SW 15 27 - - 5.4 - - - - - - -
25/11:30pm 11.4 SW 16 23 - - 5.4 - - - - - - -
25/11:00pm 11.6 SW 14 19 - - 5.4 - - - - - - -
25/10:30pm 11.8 SW 18 25 - - 5.4 - - - - - - -
25/10:00pm 11.7 SW 17 22 - - 5.4 - - - - - - -
25/09:30pm 11.3 SW 18 28 - - 5.4 - - - - - - -
25/09:21pm 11.4 SW 16 28 - - 5.2 - - - - - - -
25/09:00pm 11.6 SW 19 27 - - 5.2 Rain - - - - - -
25/08:41pm 12.3 SW 15 36 - - 4.8 - - - - - - -
25/08:30pm 12.4 WSW 13 19 - - 4.0 - - - - - - -
25/08:00pm 12.3 WSW 11 18 - - 0.8 - - - - - - -
25/07:37pm 12.8 W 15 24 - - 0.2 - - - - - - -
25/07:30pm 12.8 W 10 14 - - 0.0 - - - - - - -
25/07:00pm 13.1 WNW 11 17 - - 0.0 - - - - - - -
25/06:30pm 13.3 WNW 10 13 - - 0.0 - - - - - - -
25/06:00pm 13.3 W 9 12 - - 0.0 - - - - - - -
25/05:30pm 13.5 W 9 14 - - 0.0 - - - - - - -
25/05:00pm 14.2 W 12 17 - - 0.0 - - - - - - -
25/04:30pm 15.6 WSW 16 24 - - 0.0 - - - - - - -
25/04:00pm 15.8 W 16 23 - - 0.0 - - - - - - -
25/03:30pm 15.9 WSW 16 21 - - 0.0 - - - - - - -
25/03:00pm 16.8 WSW 14 18 - - 0.0 - - - - - - -
25/02:30pm 16.4 WSW 14 20 - - 0.0 - - - - - - -
25/02:00pm 15.4 WSW 12 15 - - 0.0 - - - - - - -
25/01:30pm 16.3 WSW 11 15 - - 0.0 - - - - - - -
25/01:00pm 14.9 WSW 13 23 - - 0.0 - - - - - - -
25/12:51pm 14.6 WSW 15 26 - - 0.0 - - - - - - -
25/12:30pm 14.9 WSW 14 21 - - 0.0 - - - - - - -
25/12:00pm 17.3 W 11 14 - - 0.0 - - - - - - -
25/11:30am 17.7 W 12 15 - - 0.0 - - - - - - -
25/11:00am 17.5 WSW 9 13 - - 0.0 - - - - - - -
25/10:30am 17.5 WSW 8 10 - - 0.0 - - - - - - -
25/10:00am 16.8 WSW 12 15 - - 0.0 - - - - - - -
25/09:30am 16.1 SW 10 16 - - 0.0 - - - - - - -
25/09:00am 15.3 WSW 11 16 - - 11.2 - - - - - - -
25/08:30am 14.6 WSW 9 13 - - 11.2 - - - - - - -
25/08:00am 14.2 WSW 8 12 - - 11.2 - - - - - - -
25/07:30am 13.4 WSW 7 11 - - 11.2 - - - - - - -
25/07:00am 12.9 WSW 7 9 - - 11.2 - - - - - - -
25/06:30am 13.1 WSW 7 8 - - 11.0 - - - - - - -
25/06:00am 13.4 WSW 8 9 - - 11.0 - - - - - - -
25/05:30am 13.6 WSW 6 8 - - 11.0 - - - - - - -
25/05:00am 13.0 W 7 8 - - 11.0 - - - - - - -
25/04:30am 13.2 WSW 6 8 - - 11.0 - - - - - - -
25/04:00am 13.5 SW 8 10 - - 11.0 - - - - - - -
25/03:30am 14.0 SW 8 11 - - 11.0 - - - - - - -
25/03:00am 13.7 WSW 7 10 - - 11.0 Recent precip. - - - - - -
25/02:30am 12.5 W 6 7 - - 10.8 - - - - - - -
25/02:00am 12.1 WNW 5 6 - - 10.8 - - - - - - -
25/01:30am 11.7 W 6 7 - - 10.8 - - - - - - -
25/01:00am 11.6 WSW 6 7 - - 10.8 - - - - - - -
25/12:30am 11.4 W 5 6 - - 10.8 - - - - - - -
25/12:00am 11.4 WNW 3 4 - - 10.8 - - - - - - -
 
Date/Time
CST
Temp
°C
Wind Pressure Rain since
9am
mm
Weather Cloud Vis
km
Sea
Height
m
Swell
Dir  Spd
kts
Gust
kts
hPa Trend Height
m
Period
s
Dir
24/11:30pm 11.6 NW 4 5 - - 10.8 - - - - - - -
24/11:00pm 12.1 NW 5 6 - - 10.8 - - - - - - -
24/10:30pm 12.7 NW 5 7 - - 10.8 - - - - - - -
24/10:00pm 13.5 W 9 11 - - 10.8 - - - - - - -
24/09:30pm 14.3 W 8 10 - - 10.8 - - - - - - -
24/09:00pm 14.8 WSW 8 12 - - 10.8 - - - - - - -
24/08:30pm 15.5 WSW 8 10 - - 10.8 - - - - - - -
24/08:00pm 15.7 SW 6 8 - - 10.8 - - - - - - -
24/07:30pm 15.7 SW 7 9 - - 10.8 - - - - - - -
24/07:00pm 15.8 SW 9 10 - - 10.8 - - - - - - -
24/06:30pm 16.1 SW 9 12 - - 10.8 - - - - - - -
24/06:00pm 16.3 SW 8 12 - - 10.8 - - - - - - -
24/05:30pm 16.7 SSW 5 6 - - 10.8 - - - - - - -
24/05:00pm 16.9 SSE 3 4 - - 10.8 - - - - - - -
24/04:30pm 17.0 SE 4 5 - - 10.8 - - - - - - -
24/04:00pm 16.9 SSE 3 3 - - 10.8 - - - - - - -
24/03:30pm 16.9 SSE 3 4 - - 10.8 - - - - - - -
24/03:00pm 17.3 WSW 7 12 - - 10.8 Recent precip. - - - - - -
24/02:30pm 17.3 WNW 10 15 - - 10.8 - - - - - - -
24/02:00pm 17.0 NW 8 14 - - 9.8 - - - - - - -
24/01:30pm 17.3 NNW 7 8 - - 4.2 - - - - - - -
24/01:00pm 17.7 N 8 12 - - 2.2 - - - - - - -
24/12:30pm 18.1 N 8 14 - - 0.6 - - - - - - -
24/12:00pm 18.6 N 8 11 - - 0.2 - - - - - - -
24/11:30am 17.9 NNE 7 10 - - 0.2 - - - - - - -
24/11:00am 17.9 NNE 6 8 - - 0.2 - - - - - - -
24/10:30am 16.8 NNE 5 7 - - 0.2 - - - - - - -
24/10:00am 16.9 N 5 8 - - 0.0 - - - - - - -
24/09:30am 16.4 NNE 4 5 - - 0.0 - - - - - - -
24/09:00am 15.9 NNE 4 6 - - 0.2 - - - - - - -
24/08:30am 15.4 NNE 4 5 - - 0.2 - - - - - - -
24/08:00am 15.2 N 2 3 - - 0.2 - - - - - - -
24/07:30am 14.1 NNW 3 5 - - 0.2 - - - - - - -
24/07:00am 14.7 N 4 5 - - 0.2 - - - - - - -
24/06:30am 14.3 NE 4 5 - - 0.2 - - - - - - -
24/06:00am 14.3 NE 3 4 - - 0.2 - - - - - - -
24/05:30am 14.6 NNE 2 4 - - 0.2 - - - - - - -
24/05:00am 14.2 NE 2 3 - - 0.2 - - - - - - -
24/04:30am 12.9 CALM 0 1 - - 0.2 - - - - - - -
24/04:00am 13.5 S 2 3 - - 0.2 - - - - - - -
24/03:30am 13.5 S 3 4 - - 0.2 - - - - - - -
24/03:00am 13.4 ESE 2 3 - - 0.2 - - - - - - -
24/02:30am 14.0 E 2 2 - - 0.2 - - - - - - -
24/02:00am 14.8 E 3 4 - - 0.2 - - - - - - -
24/01:30am 15.2 SE 3 5 - - 0.2 - - - - - - -
24/01:00am 15.1 SE 5 6 - - 0.2 - - - - - - -
24/12:30am 15.4 E 3 5 - - 0.2 - - - - - - -
24/12:00am 15.6 SE 4 5 - - 0.2 - - - - - - -
 
Date/Time
CST
Temp
°C
Wind Pressure Rain since
9am
mm
Weather Cloud Vis
km
Sea
Height
m
Swell
Dir  Spd
kts
Gust
kts
hPa Trend Height
m
Period
s
Dir
23/11:30pm 15.5 SE 5 6 - - 0.2 - - - - - - -
23/11:00pm 15.6 SE 5 6 - - 0.2 - - - - - - -
23/10:30pm 15.6 ESE 5 7 - - 0.2 - - - - - - -
23/10:00pm 15.8 SSE 3 5 - - 0.2 - - - - - - -
23/09:30pm 15.8 ESE 4 5 - - 0.2 - - - - - - -
23/09:00pm 15.8 ESE 5 7 - - 0.2 - - - - - - -
23/08:30pm 15.7 ESE 7 10 - - 0.2 - - - - - - -
23/08:00pm 15.6 ESE 6 8 - - 0.2 - - - - - - -
23/07:30pm 15.2 ESE 6 8 - - 0.2 - - - - - - -
23/07:00pm 15.7 ESE 7 10 - - 0.2 - - - - - - -
23/06:30pm 15.8 ESE 5 7 - - 0.2 - - - - - - -
23/06:00pm 16.0 ESE 9 11 - - 0.2 - - - - - - -
23/05:30pm 16.6 E 9 11 - - 0.2 - - - - - - -
23/05:00pm 17.5 ESE 10 12 - - 0.2 - - - - - - -
23/04:30pm 18.8 E 9 11 - - 0.2 - - - - - - -
23/04:00pm 18.8 E 9 11 - - 0.2 - - - - - - -
23/03:30pm 18.9 ESE 8 10 - - 0.2 - - - - - - -
23/03:00pm 19.4 E 8 10 - - 0.2 - - - - - - -
23/02:30pm 20.3 ENE 7 9 - - 0.2 - - - - - - -
23/02:00pm 20.0 ENE 6 9 - - 0.2 - - - - - - -
23/01:30pm 20.1 E 8 10 - - 0.2 - - - - - - -
23/01:00pm 19.9 E 6 8 - - 0.2 - - - - - - -
23/12:30pm 20.1 E 6 9 - - 0.2 - - - - - - -
23/12:00pm 20.4 E 7 10 - - 0.2 Recent precip. - - - - - -

Other Formats:

Comma delimited format used in spreadsheet applications
http://www.bom.gov.au/fwo/IDS60701/IDS60701.94807.axf

JavaScript Object Notation format (JSON) in row-major order
http://www.bom.gov.au/fwo/IDS60701/IDS60701.94807.json